Time;durP1;ratioP1;P1;durP2;ratioP2;P2;SDS_P1;SDS_P2;PMS_P1;PMS_P2;Temp;Humidity;BMP_temperature;BMP_pressure;BME280_temperature;BME280_humidity;BME280_pressure;Samples;Min_cycle;Max_cycle;Signal;HPM_P1;HPM_P2
2022/08/16 00:00:49;;;;;;;;;;;22.90;67.80;;;;;;5022890;28;19921;-69
2022/08/16 00:03:14;;;;;;;;;;;22.90;67.80;;;;;;5023390;28;19919;-69
2022/08/16 00:05:40;;;;;;;;;;;22.80;67.60;;;;;;5024780;28;19995;-69
2022/08/16 00:08:06;;;;;;;;;;;22.90;67.90;;;;;;5028563;28;20005;-69
2022/08/16 00:10:33;;;;;;;;;;;22.80;67.80;;;;;;5005276;28;19999;-69
2022/08/16 00:12:59;;;;;;;;;;;22.80;67.70;;;;;;5023079;28;20454;-69
2022/08/16 00:15:27;;;;;;;;;;;22.80;68.00;;;;;;5022795;28;19958;-68
2022/08/16 00:17:53;;;;;;;;;;;22.80;67.90;;;;;;5023377;28;19927;-69
2022/08/16 00:20:20;;;;;;;;;;;22.70;68.10;;;;;;5023063;28;19917;-69
2022/08/16 00:22:45;;;;;;;;;;;22.70;68.50;;;;;;5025919;28;19940;-69
2022/08/16 00:25:13;;;;;;;;;;;22.70;68.30;;;;;;5023018;28;19921;-68
2022/08/16 00:27:38;;;;;;;;;;;22.70;68.50;;;;;;5023230;28;19909;-68
2022/08/16 00:30:05;;;;;;;;;;;22.70;68.30;;;;;;5022790;28;19920;-69
2022/08/16 00:32:31;;;;;;;;;;;22.60;68.20;;;;;;5022274;28;20514;-69
2022/08/16 00:34:56;;;;;;;;;;;22.60;68.40;;;;;;5023229;28;20020;-69
2022/08/16 00:37:23;;;;;;;;;;;22.60;68.60;;;;;;5029793;28;19917;-69
2022/08/16 00:39:49;;;;;;;;;;;22.60;68.70;;;;;;5022858;28;20439;-69
2022/08/16 00:42:14;;;;;;;;;;;22.60;69.00;;;;;;5022933;28;19917;-69
2022/08/16 00:44:52;;;;;;;;;;;22.50;68.50;;;;;;5022506;28;19921;-68
2022/08/16 00:47:18;;;;;;;;;;;22.50;68.80;;;;;;5022408;28;19917;-69
2022/08/16 00:49:43;;;;;;;;;;;22.50;68.50;;;;;;5022484;28;19914;-69
2022/08/16 00:52:09;;;;;;;;;;;22.50;68.30;;;;;;5004554;28;19982;-69
2022/08/16 00:54:35;;;;;;;;;;;22.50;68.90;;;;;;5034567;28;20334;-69
2022/08/16 00:57:01;;;;;;;;;;;22.50;68.50;;;;;;5041652;28;19920;-69
2022/08/16 00:59:28;;;;;;;;;;;22.50;68.80;;;;;;5041830;28;19916;-68
2022/08/16 01:01:54;;;;;;;;;;;22.50;68.90;;;;;;5041728;28;20008;-69
2022/08/16 01:04:21;;;;;;;;;;;22.40;68.90;;;;;;5041829;28;19919;-69
2022/08/16 01:06:48;;;;;;;;;;;22.40;69.00;;;;;;5039086;28;20623;-69
2022/08/16 01:09:13;;;;;;;;;;;22.40;68.70;;;;;;5020920;28;20435;-69
2022/08/16 01:11:39;;;;;;;;;;;22.40;68.30;;;;;;5022720;28;19920;-69
2022/08/16 01:14:11;;;;;;;;;;;22.40;68.30;;;;;;5022164;28;19966;-69
2022/08/16 01:16:36;;;;;;;;;;;22.40;68.40;;;;;;5016146;28;19913;-69
2022/08/16 01:19:08;;;;;;;;;;;22.40;68.40;;;;;;5022527;28;19919;-68
2022/08/16 01:21:48;;;;;;;;;;;22.40;68.80;;;;;;5021824;28;19913;-69
2022/08/16 01:24:17;;;;;;;;;;;22.40;68.60;;;;;;5026899;28;20714;-69
2022/08/16 01:26:44;;;;;;;;;;;22.40;68.50;;;;;;5030151;28;19917;-69
2022/08/16 01:29:12;;;;;;;;;;;22.30;69.00;;;;;;5022584;28;19924;-68
2022/08/16 01:31:37;;;;;;;;;;;22.30;68.80;;;;;;5021550;28;19920;-68
2022/08/16 01:34:03;;;;;;;;;;;22.30;69.00;;;;;;5033751;28;19917;-68
2022/08/16 01:36:28;;;;;;;;;;;22.30;68.60;;;;;;5040824;28;19921;-69
2022/08/16 01:38:54;;;;;;;;;;;22.30;68.70;;;;;;5022267;28;20542;-69
2022/08/16 01:41:21;;;;;;;;;;;22.30;68.30;;;;;;5004017;28;19913;-69
2022/08/16 01:43:47;;;;;;;;;;;22.30;68.50;;;;;;5029884;28;19924;-68
2022/08/16 01:46:22;;;;;;;;;;;22.30;68.70;;;;;;5034629;28;19943;-68
2022/08/16 01:48:48;;;;;;;;;;;22.20;68.40;;;;;;5024311;28;19920;-69
2022/08/16 01:51:15;;;;;;;;;;;22.20;69.00;;;;;;5021938;28;19914;-68
2022/08/16 01:53:41;;;;;;;;;;;22.20;68.90;;;;;;5029803;28;20138;-68
2022/08/16 01:56:06;;;;;;;;;;;22.20;69.00;;;;;;5023209;28;20369;-69
2022/08/16 01:58:32;;;;;;;;;;;22.20;69.00;;;;;;5041371;28;19919;-69
2022/08/16 02:00:57;;;;;;;;;;;22.20;69.00;;;;;;5031981;28;20498;-69
2022/08/16 02:03:23;;;;;;;;;;;22.20;69.10;;;;;;5040735;28;19915;-69
2022/08/16 02:05:49;;;;;;;;;;;22.20;68.80;;;;;;5035721;28;19916;-69
2022/08/16 02:08:14;;;;;;;;;;;22.20;68.80;;;;;;5026654;28;20000;-68
2022/08/16 02:10:40;;;;;;;;;;;22.20;68.80;;;;;;5020531;28;19969;-68
2022/08/16 02:13:06;;;;;;;;;;;22.20;68.80;;;;;;5021307;28;20568;-69
2022/08/16 02:15:34;;;;;;;;;;;22.10;68.70;;;;;;5021689;28;19917;-68
2022/08/16 02:18:00;;;;;;;;;;;22.10;69.20;;;;;;5021458;28;19977;-69
2022/08/16 02:20:27;;;;;;;;;;;22.10;69.30;;;;;;5021764;28;19913;-69
2022/08/16 02:22:53;;;;;;;;;;;22.10;69.20;;;;;;5021985;28;19915;-69
2022/08/16 02:25:19;;;;;;;;;;;22.10;69.00;;;;;;5020805;28;19913;-69
2022/08/16 02:27:45;;;;;;;;;;;22.10;69.50;;;;;;5021578;28;20393;-69
2022/08/16 02:30:13;;;;;;;;;;;22.00;69.10;;;;;;5006347;28;20383;-68
2022/08/16 02:32:39;;;;;;;;;;;22.10;69.00;;;;;;5043368;28;19973;-68
2022/08/16 02:35:05;;;;;;;;;;;22.10;69.00;;;;;;5007222;28;19927;-69
2022/08/16 02:37:30;;;;;;;;;;;22.10;68.90;;;;;;5024502;28;19909;-69
2022/08/16 02:39:56;;;;;;;;;;;22.10;69.20;;;;;;5024415;28;19932;-69
2022/08/16 02:42:21;;;;;;;;;;;22.00;69.60;;;;;;5024449;28;20016;-69
2022/08/16 02:44:47;;;;;;;;;;;22.00;69.40;;;;;;5024807;28;19917;-68
2022/08/16 02:47:12;;;;;;;;;;;22.00;69.00;;;;;;5024824;28;20016;-69
2022/08/16 02:49:38;;;;;;;;;;;22.00;69.60;;;;;;5024339;28;19920;-69
2022/08/16 02:52:03;;;;;;;;;;;22.00;69.60;;;;;;5025388;28;19914;-69
2022/08/16 02:54:29;;;;;;;;;;;22.00;69.50;;;;;;5030220;28;20021;-69
2022/08/16 02:56:55;;;;;;;;;;;22.00;69.00;;;;;;5043870;27;19912;-69
2022/08/16 02:59:20;;;;;;;;;;;22.00;69.00;;;;;;5013303;28;19919;-69
2022/08/16 03:01:46;;;;;;;;;;;22.00;69.10;;;;;;5024057;28;19913;-69
2022/08/16 03:04:11;;;;;;;;;;;22.00;69.20;;;;;;5024062;28;20465;-69
2022/08/16 03:06:37;;;;;;;;;;;22.00;69.30;;;;;;5007471;28;19909;-69
2022/08/16 03:09:03;;;;;;;;;;;21.90;69.70;;;;;;5037655;28;20001;-68
2022/08/16 03:11:30;;;;;;;;;;;21.90;70.00;;;;;;5043116;28;20386;-69
2022/08/16 03:13:56;;;;;;;;;;;21.90;70.10;;;;;;5042882;28;19913;-68
2022/08/16 03:16:22;;;;;;;;;;;21.90;69.90;;;;;;5043777;28;19939;-69
2022/08/16 03:18:47;;;;;;;;;;;21.80;70.10;;;;;;5043557;28;19920;-69
2022/08/16 03:21:13;;;;;;;;;;;21.80;70.20;;;;;;5027779;28;19909;-69
2022/08/16 03:23:39;;;;;;;;;;;21.80;70.30;;;;;;5024512;28;20004;-69
2022/08/16 03:26:04;;;;;;;;;;;21.80;70.10;;;;;;5031361;28;19967;-69
2022/08/16 03:28:30;;;;;;;;;;;21.80;70.00;;;;;;5043169;28;19920;-69
2022/08/16 03:30:56;;;;;;;;;;;21.80;69.90;;;;;;5042732;28;19924;-69
2022/08/16 03:33:21;;;;;;;;;;;21.70;70.20;;;;;;5044464;28;19916;-69
2022/08/16 03:35:47;;;;;;;;;;;21.70;70.60;;;;;;5038251;28;20003;-69
2022/08/16 03:38:14;;;;;;;;;;;21.70;70.70;;;;;;5021677;28;19977;-69
2022/08/16 03:40:40;;;;;;;;;;;21.70;70.90;;;;;;5028360;28;20466;-69
2022/08/16 03:43:09;;;;;;;;;;;21.70;70.80;;;;;;5016585;28;19914;-69
2022/08/16 03:45:35;;;;;;;;;;;21.70;71.00;;;;;;5023677;28;19956;-69
2022/08/16 03:48:01;;;;;;;;;;;21.70;71.00;;;;;;5023106;28;20040;-69
2022/08/16 03:50:27;;;;;;;;;;;21.60;71.00;;;;;;5016430;28;19917;-69
2022/08/16 03:52:53;;;;;;;;;;;21.60;71.10;;;;;;5020563;28;20333;-69
2022/08/16 03:55:18;;;;;;;;;;;21.60;71.20;;;;;;5042191;28;19913;-69
2022/08/16 03:57:44;;;;;;;;;;;21.60;71.10;;;;;;5037065;28;19916;-69
2022/08/16 04:00:12;;;;;;;;;;;21.60;71.20;;;;;;5042752;28;19913;-69
2022/08/16 04:02:38;;;;;;;;;;;21.50;71.20;;;;;;5030299;28;20362;-69
2022/08/16 04:05:05;;;;;;;;;;;21.50;71.20;;;;;;5025254;28;19924;-69
2022/08/16 04:07:31;;;;;;;;;;;21.50;71.30;;;;;;5033508;28;19913;-69
2022/08/16 04:09:57;;;;;;;;;;;21.50;71.30;;;;;;5023484;28;20377;-69
2022/08/16 04:12:22;;;;;;;;;;;21.50;71.30;;;;;;5028073;28;19924;-69
2022/08/16 04:14:48;;;;;;;;;;;21.50;71.50;;;;;;5024875;28;19912;-69
2022/08/16 04:17:14;;;;;;;;;;;21.50;71.50;;;;;;5029239;28;19979;-69
2022/08/16 04:19:40;;;;;;;;;;;21.50;71.60;;;;;;5005908;28;20783;-69
2022/08/16 04:22:05;;;;;;;;;;;21.40;71.40;;;;;;5023124;28;20012;-69
2022/08/16 04:24:31;;;;;;;;;;;21.40;71.40;;;;;;5027288;28;19916;-69
2022/08/16 04:26:56;;;;;;;;;;;21.40;71.50;;;;;;5042446;28;19920;-69
2022/08/16 04:29:22;;;;;;;;;;;21.40;71.80;;;;;;5024111;28;20612;-69
2022/08/16 04:31:48;;;;;;;;;;;21.40;71.70;;;;;;5042002;28;19973;-69
2022/08/16 04:34:13;;;;;;;;;;;21.40;71.60;;;;;;5042100;28;19936;-69
2022/08/16 04:36:39;;;;;;;;;;;21.30;71.80;;;;;;5039387;28;19921;-69
2022/08/16 04:39:05;;;;;;;;;;;21.40;71.70;;;;;;5033366;28;19917;-69
2022/08/16 04:41:31;;;;;;;;;;;21.30;71.80;;;;;;5023087;28;20269;-69
2022/08/16 04:43:57;;;;;;;;;;;21.30;71.80;;;;;;5023058;28;19920;-69
2022/08/16 04:46:22;;;;;;;;;;;21.30;71.70;;;;;;5023334;28;20322;-69
2022/08/16 04:48:48;;;;;;;;;;;21.30;71.70;;;;;;5004980;28;20012;-69
2022/08/16 04:51:13;;;;;;;;;;;21.30;71.80;;;;;;5021788;28;19913;-69
2022/08/16 04:53:39;;;;;;;;;;;21.30;71.70;;;;;;5025083;28;19983;-69
2022/08/16 04:56:05;;;;;;;;;;;21.30;71.90;;;;;;5023705;28;19913;-69
2022/08/16 04:58:32;;;;;;;;;;;21.30;72.00;;;;;;5042156;28;20011;-69
2022/08/16 05:00:58;;;;;;;;;;;21.30;72.10;;;;;;5041572;28;20024;-69
2022/08/16 05:03:23;;;;;;;;;;;21.20;71.90;;;;;;5041585;28;19995;-69
2022/08/16 05:05:50;;;;;;;;;;;21.20;71.60;;;;;;5035379;28;19945;-69
2022/08/16 05:08:15;;;;;;;;;;;21.20;72.00;;;;;;5016038;28;20004;-69
2022/08/16 05:10:41;;;;;;;;;;;21.20;72.20;;;;;;5031455;28;20035;-69
2022/08/16 05:13:07;;;;;;;;;;;21.20;72.00;;;;;;5022410;28;19922;-69
2022/08/16 05:15:33;;;;;;;;;;;21.20;72.10;;;;;;5022620;28;20110;-69
2022/08/16 05:17:59;;;;;;;;;;;21.20;72.10;;;;;;5022268;28;19913;-69
2022/08/16 05:20:25;;;;;;;;;;;21.20;72.10;;;;;;5022075;28;19924;-69
2022/08/16 05:22:51;;;;;;;;;;;21.20;72.10;;;;;;5030892;28;19928;-69
2022/08/16 05:25:17;;;;;;;;;;;21.20;72.00;;;;;;5022727;28;19947;-69
2022/08/16 05:27:42;;;;;;;;;;;21.20;72.10;;;;;;5022956;28;19959;-69
2022/08/16 05:30:09;;;;;;;;;;;21.20;72.00;;;;;;5021577;28;19926;-69
2022/08/16 05:32:35;;;;;;;;;;;21.20;72.10;;;;;;5021971;28;21839;-69
2022/08/16 05:35:00;;;;;;;;;;;21.20;72.30;;;;;;5022232;28;20338;-69
2022/08/16 05:37:26;;;;;;;;;;;21.20;72.50;;;;;;5031625;28;19919;-69
2022/08/16 05:39:51;;;;;;;;;;;21.20;72.40;;;;;;5037233;28;19925;-69
2022/08/16 05:42:17;;;;;;;;;;;21.20;72.40;;;;;;5022466;28;19920;-69
2022/08/16 05:44:43;;;;;;;;;;;21.20;72.30;;;;;;5022544;28;20405;-69
2022/08/16 05:47:08;;;;;;;;;;;21.20;72.10;;;;;;5022197;28;19913;-69
2022/08/16 05:49:34;;;;;;;;;;;21.20;71.80;;;;;;5021881;28;19921;-69
2022/08/16 05:51:59;;;;;;;;;;;21.20;72.00;;;;;;5037932;28;19973;-69
2022/08/16 05:54:26;;;;;;;;;;;21.20;71.80;;;;;;5024534;28;19917;-69
2022/08/16 05:56:53;;;;;;;;;;;21.20;72.00;;;;;;5041242;28;19982;-69
2022/08/16 05:59:19;;;;;;;;;;;21.20;71.70;;;;;;5022652;28;19921;-69
2022/08/16 06:01:44;;;;;;;;;;;21.20;71.60;;;;;;5040392;28;19919;-69
2022/08/16 06:04:11;;;;;;;;;;;21.10;71.40;;;;;;5041206;28;19932;-69
2022/08/16 06:06:36;;;;;;;;;;;21.10;71.30;;;;;;5014608;28;20596;-69
2022/08/16 06:09:02;;;;;;;;;;;21.20;71.60;;;;;;5025646;28;19966;-68
2022/08/16 06:11:27;;;;;;;;;;;21.20;71.30;;;;;;5025530;28;19954;-69
2022/08/16 06:13:53;;;;;;;;;;;21.20;71.30;;;;;;5025183;28;20452;-69
2022/08/16 06:16:19;;;;;;;;;;;21.20;71.20;;;;;;5025382;28;19910;-69
2022/08/16 06:18:44;;;;;;;;;;;21.20;71.20;;;;;;5025288;28;19925;-68
2022/08/16 06:21:10;;;;;;;;;;;21.20;71.00;;;;;;5028765;28;20379;-69
2022/08/16 06:23:36;;;;;;;;;;;21.20;71.10;;;;;;5028790;28;19913;-68
2022/08/16 06:26:02;;;;;;;;;;;21.20;71.10;;;;;;5018016;28;19917;-68
2022/08/16 06:28:28;;;;;;;;;;;21.20;71.00;;;;;;5043551;28;19974;-68
2022/08/16 06:30:53;;;;;;;;;;;21.20;70.90;;;;;;5042534;28;19913;-69
2022/08/16 06:33:19;;;;;;;;;;;21.20;71.00;;;;;;5035368;28;20527;-68
2022/08/16 06:35:45;;;;;;;;;;;21.30;70.80;;;;;;5024511;28;19937;-68
2022/08/16 06:38:11;;;;;;;;;;;21.30;70.70;;;;;;5024698;28;20041;-68
2022/08/16 06:40:37;;;;;;;;;;;21.30;70.80;;;;;;5024695;28;20440;-68
2022/08/16 06:43:02;;;;;;;;;;;21.30;70.70;;;;;;5006908;28;19942;-69
2022/08/16 06:45:28;;;;;;;;;;;21.30;70.60;;;;;;5024234;28;19934;-68
2022/08/16 06:47:53;;;;;;;;;;;21.30;70.60;;;;;;5002929;28;20708;-69
2022/08/16 06:50:19;;;;;;;;;;;21.30;70.60;;;;;;5020155;28;20008;-68
2022/08/16 06:52:45;;;;;;;;;;;21.40;70.50;;;;;;5022448;28;19917;-69
2022/08/16 06:55:11;;;;;;;;;;;21.40;70.60;;;;;;5003698;28;19968;-68
2022/08/16 06:57:37;;;;;;;;;;;21.40;70.50;;;;;;5022148;28;20547;-68
2022/08/16 07:00:13;;;;;;;;;;;21.40;70.60;;;;;;5021883;28;20019;-69
2022/08/16 07:02:40;;;;;;;;;;;21.40;70.70;;;;;;5043810;28;19913;-68
2022/08/16 07:05:06;;;;;;;;;;;21.40;70.80;;;;;;5043144;28;19919;-68
2022/08/16 07:07:32;;;;;;;;;;;21.50;70.20;;;;;;5041638;28;19917;-68
2022/08/16 07:09:58;;;;;;;;;;;21.50;70.20;;;;;;5043121;28;19969;-69
2022/08/16 07:12:23;;;;;;;;;;;21.50;70.20;;;;;;5041113;28;19913;-68
2022/08/16 07:14:49;;;;;;;;;;;21.50;70.20;;;;;;5030308;28;19916;-69
2022/08/16 07:17:14;;;;;;;;;;;21.50;70.20;;;;;;5024951;28;19920;-68
2022/08/16 07:19:40;;;;;;;;;;;21.50;70.00;;;;;;5020711;28;19913;-68
2022/08/16 07:22:05;;;;;;;;;;;21.60;70.00;;;;;;5023887;28;19913;-68
2022/08/16 07:24:31;;;;;;;;;;;21.60;70.10;;;;;;5023735;28;20258;-68
2022/08/16 07:26:57;;;;;;;;;;;21.60;69.90;;;;;;5026149;28;19920;-68
2022/08/16 07:29:23;;;;;;;;;;;21.60;70.00;;;;;;5042823;28;19913;-68
2022/08/16 07:31:48;;;;;;;;;;;21.70;70.10;;;;;;5042844;28;19919;-68
2022/08/16 07:34:14;;;;;;;;;;;21.70;70.00;;;;;;5043280;28;19917;-68
2022/08/16 07:36:40;;;;;;;;;;;21.70;69.90;;;;;;5042805;28;20003;-68
2022/08/16 07:39:06;;;;;;;;;;;21.70;69.80;;;;;;5025078;28;19920;-69
2022/08/16 07:41:31;;;;;;;;;;;21.70;69.70;;;;;;5018936;28;19917;-68
2022/08/16 07:43:58;;;;;;;;;;;21.80;69.60;;;;;;5023659;28;19917;-69
2022/08/16 07:46:24;;;;;;;;;;;21.80;69.50;;;;;;5023655;28;19993;-68
2022/08/16 07:48:49;;;;;;;;;;;21.80;69.50;;;;;;5023491;28;19958;-69
2022/08/16 07:51:15;;;;;;;;;;;21.80;69.50;;;;;;5023340;28;19913;-69
2022/08/16 07:53:40;;;;;;;;;;;21.80;69.40;;;;;;5009312;28;19917;-69
2022/08/16 07:56:06;;;;;;;;;;;21.90;69.40;;;;;;5034530;28;19936;-69
2022/08/16 07:58:32;;;;;;;;;;;21.90;69.40;;;;;;5023560;28;19917;-68
2022/08/16 08:01:00;;;;;;;;;;;21.90;70.00;;;;;;5023267;28;20597;-69
2022/08/16 08:03:26;;;;;;;;;;;21.90;69.30;;;;;;5023203;28;20022;-69
2022/08/16 08:05:51;;;;;;;;;;;21.90;69.30;;;;;;5027843;28;20049;-69
2022/08/16 08:08:17;;;;;;;;;;;22.00;69.30;;;;;;5023217;28;20583;-69
2022/08/16 08:10:43;;;;;;;;;;;22.00;69.10;;;;;;5028003;28;19917;-69
2022/08/16 08:13:08;;;;;;;;;;;22.00;69.00;;;;;;5042281;28;19917;-69
2022/08/16 08:15:34;;;;;;;;;;;22.10;69.20;;;;;;5024645;28;19913;-68
2022/08/16 08:18:01;;;;;;;;;;;22.10;69.10;;;;;;5036450;28;19913;-68
2022/08/16 08:20:27;;;;;;;;;;;22.10;68.90;;;;;;5022750;28;19913;-68
2022/08/16 08:22:53;;;;;;;;;;;22.10;68.90;;;;;;5002334;28;19949;-69
2022/08/16 08:25:19;;;;;;;;;;;22.10;69.00;;;;;;5024823;28;20070;-68
2022/08/16 08:27:45;;;;;;;;;;;22.20;68.80;;;;;;5022246;28;20065;-68
2022/08/16 08:30:11;;;;;;;;;;;22.20;69.10;;;;;;5022377;28;19913;-69
2022/08/16 08:32:36;;;;;;;;;;;22.20;68.70;;;;;;5023201;28;20290;-68
2022/08/16 08:35:03;;;;;;;;;;;22.30;68.80;;;;;;5022906;28;19929;-68
2022/08/16 08:37:29;;;;;;;;;;;22.30;68.80;;;;;;5005232;28;20330;-69
2022/08/16 08:39:55;;;;;;;;;;;22.30;68.80;;;;;;5031822;28;19924;-69
2022/08/16 08:42:21;;;;;;;;;;;22.30;69.00;;;;;;5041449;28;20651;-69
2022/08/16 08:44:46;;;;;;;;;;;22.40;68.70;;;;;;5041978;28;19920;-68
2022/08/16 08:47:19;;;;;;;;;;;22.40;68.60;;;;;;5065809;27;19916;-69
2022/08/16 08:49:45;;;;;;;;;;;22.40;68.90;;;;;;5065456;28;20459;-69
2022/08/16 08:52:11;;;;;;;;;;;22.50;68.70;;;;;;5062122;28;19917;-69
2022/08/16 08:54:37;;;;;;;;;;;22.50;68.60;;;;;;5061742;28;20521;-69
2022/08/16 08:57:04;;;;;;;;;;;22.60;68.30;;;;;;5061721;28;19999;-69
2022/08/16 08:59:30;;;;;;;;;;;22.60;68.90;;;;;;5059967;28;20432;-69
2022/08/16 09:01:56;;;;;;;;;;;22.60;68.40;;;;;;5094340;28;20118;-69
2022/08/16 09:04:21;;;;;;;;;;;22.70;68.80;;;;;;5061722;28;19913;-69
2022/08/16 09:06:47;;;;;;;;;;;22.70;68.10;;;;;;5061398;28;20015;-69
2022/08/16 09:09:12;;;;;;;;;;;22.80;68.10;;;;;;5061367;28;19962;-69
2022/08/16 09:11:41;;;;;;;;;;;22.80;68.10;;;;;;5061197;28;19977;-69
2022/08/16 09:14:07;;;;;;;;;;;22.80;67.80;;;;;;5061671;28;20289;-69
2022/08/16 09:16:33;;;;;;;;;;;22.90;67.70;;;;;;5061342;28;19913;-68
2022/08/16 09:18:59;;;;;;;;;;;23.00;67.50;;;;;;5091727;28;19909;-68
2022/08/16 09:21:25;;;;;;;;;;;23.00;67.50;;;;;;5096126;27;19924;-69
2022/08/16 09:23:51;;;;;;;;;;;23.00;67.40;;;;;;5064300;28;19960;-69
2022/08/16 09:26:17;;;;;;;;;;;23.10;67.70;;;;;;5061177;28;19973;-69
2022/08/16 09:28:44;;;;;;;;;;;23.10;67.50;;;;;;5061100;28;19944;-69
2022/08/16 09:31:11;;;;;;;;;;;23.10;67.90;;;;;;5093261;28;20472;-70
2022/08/16 09:33:37;;;;;;;;;;;23.20;67.70;;;;;;5061026;28;19992;-69
2022/08/16 09:36:03;;;;;;;;;;;23.20;67.50;;;;;;5060615;28;19917;-69
2022/08/16 09:38:30;;;;;;;;;;;23.30;67.30;;;;;;5059264;28;20031;-69
2022/08/16 09:40:56;;;;;;;;;;;23.30;67.30;;;;;;5054509;28;19912;-69
2022/08/16 09:43:22;;;;;;;;;;;23.30;67.10;;;;;;5086874;28;19970;-69
2022/08/16 09:45:48;;;;;;;;;;;23.40;67.40;;;;;;5059460;28;20675;-69
2022/08/16 09:48:13;;;;;;;;;;;23.40;67.30;;;;;;5062767;28;19917;-69
2022/08/16 09:50:40;;;;;;;;;;;23.50;67.00;;;;;;5062654;28;19931;-69
2022/08/16 09:53:09;;;;;;;;;;;23.50;67.00;;;;;;5064730;28;20506;-70
2022/08/16 09:55:35;;;;;;;;;;;23.60;66.60;;;;;;5060862;28;20016;-69
2022/08/16 09:58:01;;;;;;;;;;;23.60;66.80;;;;;;5049484;28;19992;-69
2022/08/16 10:00:26;;;;;;;;;;;23.60;66.80;;;;;;5047021;28;19938;-68
2022/08/16 10:02:52;;;;;;;;;;;23.70;66.70;;;;;;5046911;28;19920;-69
2022/08/16 10:05:18;;;;;;;;;;;23.80;66.60;;;;;;5045310;28;20381;-69
2022/08/16 10:07:46;;;;;;;;;;;23.80;66.50;;;;;;5046931;28;19931;-69
2022/08/16 10:10:14;;;;;;;;;;;23.90;66.50;;;;;;5046816;28;19967;-69
2022/08/16 10:15:26;;;;;;;;;;;23.90;66.30;;;;;;5047478;28;20653;-69
2022/08/16 10:17:52;;;;;;;;;;;24.00;66.00;;;;;;5046839;28;19916;-69
2022/08/16 10:20:18;;;;;;;;;;;24.10;65.90;;;;;;5048246;28;19916;-69
2022/08/16 10:22:44;;;;;;;;;;;24.10;66.30;;;;;;5046891;28;20282;-69
2022/08/16 10:25:09;;;;;;;;;;;24.10;66.00;;;;;;5045714;28;20366;-69
2022/08/16 10:27:35;;;;;;;;;;;24.20;65.80;;;;;;5045789;28;19923;-69
2022/08/16 10:30:02;;;;;;;;;;;24.30;66.00;;;;;;5045454;28;20357;-69
2022/08/16 10:32:28;;;;;;;;;;;24.30;65.80;;;;;;5077847;28;19913;-69
2022/08/16 10:34:54;;;;;;;;;;;24.40;65.80;;;;;;5046124;28;20286;-69
2022/08/16 10:37:19;;;;;;;;;;;24.40;65.60;;;;;;5045222;28;19920;-69
2022/08/16 10:39:45;;;;;;;;;;;24.40;66.00;;;;;;5045353;28;19913;-69
2022/08/16 10:42:11;;;;;;;;;;;24.40;65.90;;;;;;5045635;28;20385;-69
2022/08/16 10:44:36;;;;;;;;;;;24.50;66.00;;;;;;5046468;28;19916;-69
2022/08/16 10:47:02;;;;;;;;;;;24.60;65.90;;;;;;5063753;28;19920;-69
2022/08/16 10:49:28;;;;;;;;;;;24.70;66.00;;;;;;5067082;28;19913;-69
2022/08/16 10:51:54;;;;;;;;;;;24.70;66.20;;;;;;5067409;28;19962;-69
2022/08/16 10:54:20;;;;;;;;;;;24.70;66.30;;;;;;5069269;28;19916;-69
2022/08/16 10:56:46;;;;;;;;;;;24.70;66.50;;;;;;5065216;28;19913;-69
2022/08/16 10:59:11;;;;;;;;;;;24.80;66.50;;;;;;5065302;28;20578;-69
2022/08/16 11:01:37;;;;;;;;;;;25.00;66.40;;;;;;5064941;28;19936;-68
2022/08/16 11:04:02;;;;;;;;;;;25.10;66.20;;;;;;5064973;28;19919;-69
2022/08/16 11:06:28;;;;;;;;;;;25.20;66.10;;;;;;5065979;28;20612;-69
2022/08/16 11:08:55;;;;;;;;;;;25.10;65.90;;;;;;5065134;28;19916;-70
2022/08/16 11:11:21;;;;;;;;;;;25.30;65.90;;;;;;5065766;28;19920;-69
2022/08/16 11:13:47;;;;;;;;;;;25.40;66.10;;;;;;5065452;28;19916;-69
2022/08/16 11:16:13;;;;;;;;;;;25.50;65.90;;;;;;5065851;28;20280;-69
2022/08/16 11:18:38;;;;;;;;;;;25.60;65.80;;;;;;5065812;28;19919;-69
2022/08/16 11:21:04;;;;;;;;;;;25.60;65.80;;;;;;5071626;28;19929;-69
2022/08/16 11:23:29;;;;;;;;;;;25.70;65.50;;;;;;5067470;28;19919;-68
2022/08/16 11:25:55;;;;;;;;;;;25.80;65.70;;;;;;5065245;28;20003;-69
2022/08/16 11:28:21;;;;;;;;;;;25.90;65.50;;;;;;5047635;28;19912;-68
2022/08/16 11:30:47;;;;;;;;;;;26.00;65.60;;;;;;5064591;28;20442;-68
2022/08/16 11:33:12;;;;;;;;;;;26.00;65.30;;;;;;5065228;28;19917;-68
2022/08/16 11:35:38;;;;;;;;;;;26.20;65.20;;;;;;5065158;28;19916;-68
2022/08/16 11:38:05;;;;;;;;;;;26.30;65.60;;;;;;5065742;28;20524;-68
2022/08/16 11:40:33;;;;;;;;;;;26.40;65.20;;;;;;5065533;28;20020;-68
2022/08/16 11:43:00;;;;;;;;;;;26.40;65.30;;;;;;5047771;28;19908;-68
2022/08/16 11:45:26;;;;;;;;;;;26.50;65.10;;;;;;5065506;28;19966;-68
2022/08/16 11:47:51;;;;;;;;;;;26.50;65.40;;;;;;5070588;28;20024;-68
2022/08/16 11:50:17;;;;;;;;;;;26.60;65.30;;;;;;5066921;28;19917;-68
2022/08/16 11:52:42;;;;;;;;;;;26.70;65.10;;;;;;5061528;28;20007;-68
2022/08/16 11:55:09;;;;;;;;;;;26.70;65.20;;;;;;5065727;28;19919;-68
2022/08/16 11:57:35;;;;;;;;;;;26.70;65.20;;;;;;5047486;28;19952;-68
2022/08/16 12:00:03;;;;;;;;;;;26.80;65.20;;;;;;5064253;28;19924;-68
2022/08/16 12:02:28;;;;;;;;;;;26.90;65.20;;;;;;5064110;28;19913;-68
2022/08/16 12:04:54;;;;;;;;;;;26.90;64.80;;;;;;5064369;28;19965;-68
2022/08/16 12:07:20;;;;;;;;;;;27.00;64.60;;;;;;5063739;28;19920;-69
2022/08/16 12:09:47;;;;;;;;;;;27.10;64.90;;;;;;5063887;28;19919;-68
2022/08/16 12:12:12;;;;;;;;;;;27.20;64.50;;;;;;5045586;28;20253;-68
2022/08/16 12:14:38;;;;;;;;;;;27.20;64.60;;;;;;5064269;28;19912;-68
2022/08/16 12:17:05;;;;;;;;;;;27.30;64.50;;;;;;5063913;28;19998;-68
2022/08/16 12:19:31;;;;;;;;;;;27.40;64.30;;;;;;5066635;28;20750;-68
2022/08/16 12:21:57;;;;;;;;;;;27.50;64.30;;;;;;5065777;28;19977;-68
2022/08/16 12:24:23;;;;;;;;;;;27.50;64.20;;;;;;5063548;28;20003;-68
2022/08/16 12:26:49;;;;;;;;;;;27.60;63.80;;;;;;5063768;28;19993;-68
2022/08/16 12:29:14;;;;;;;;;;;27.70;63.90;;;;;;5063928;28;19912;-68
2022/08/16 12:31:41;;;;;;;;;;;27.80;63.50;;;;;;5064133;28;20309;-68
2022/08/16 12:34:06;;;;;;;;;;;27.80;63.60;;;;;;5062762;28;20288;-68
2022/08/16 12:36:34;;;;;;;;;;;27.80;63.40;;;;;;5061060;28;19920;-68
2022/08/16 12:39:00;;;;;;;;;;;27.80;63.80;;;;;;5063921;28;19912;-68
2022/08/16 12:41:25;;;;;;;;;;;27.80;64.00;;;;;;5063636;28;19913;-68
2022/08/16 12:43:52;;;;;;;;;;;27.90;63.30;;;;;;5063928;28;19917;-68
2022/08/16 12:46:18;;;;;;;;;;;28.00;63.40;;;;;;5063563;28;20011;-68
2022/08/16 12:48:58;;;;;;;;;;;28.10;63.30;;;;;;5063602;28;20586;-68
2022/08/16 12:51:27;;;;;;;;;;;28.10;63.10;;;;;;5070891;28;19920;-67
2022/08/16 12:53:55;;;;;;;;;;;28.20;62.10;;;;;;5064739;28;19917;-67
2022/08/16 12:56:22;;;;;;;;;;;28.30;63.00;;;;;;5064875;28;19920;-68
2022/08/16 13:11:19;;;;;;;;;;;28.40;61.50;;;;;;5111404;27;20656;-66
2022/08/16 13:13:45;;;;;;;;;;;28.60;62.10;;;;;;5098490;28;19947;-66
2022/08/16 13:16:11;;;;;;;;;;;28.60;61.60;;;;;;5091820;28;19943;-65
2022/08/16 13:18:36;;;;;;;;;;;28.60;61.30;;;;;;5100943;28;19912;-65
2022/08/16 13:21:06;;;;;;;;;;;28.60;61.90;;;;;;5094396;28;19912;-65
2022/08/16 13:23:32;;;;;;;;;;;28.60;62.00;;;;;;5089144;28;19912;-65
2022/08/16 13:25:57;;;;;;;;;;;28.60;61.50;;;;;;5088330;28;19919;-65
2022/08/16 13:28:23;;;;;;;;;;;28.60;61.80;;;;;;5084416;28;20510;-65
2022/08/16 13:30:50;;;;;;;;;;;28.60;61.70;;;;;;5085490;28;20573;-65
2022/08/16 13:33:20;;;;;;;;;;;28.70;61.50;;;;;;5092604;28;19908;-66
2022/08/16 13:35:48;;;;;;;;;;;28.70;61.30;;;;;;5087545;28;19912;-66
2022/08/16 13:38:14;;;;;;;;;;;28.70;60.90;;;;;;5082454;28;19924;-65
2022/08/16 13:40:39;;;;;;;;;;;28.80;60.20;;;;;;5082194;28;19931;-65
2022/08/16 13:43:05;;;;;;;;;;;28.90;60.90;;;;;;5082215;28;19912;-65
2022/08/16 13:45:32;;;;;;;;;;;28.90;60.70;;;;;;5097506;28;19912;-65
2022/08/16 13:47:58;;;;;;;;;;;29.00;60.60;;;;;;5097451;28;20419;-65
2022/08/16 13:50:24;;;;;;;;;;;29.10;60.70;;;;;;5120444;27;19919;-65
2022/08/16 13:52:50;;;;;;;;;;;29.20;60.00;;;;;;5082376;28;20722;-65
2022/08/16 13:55:15;;;;;;;;;;;29.20;60.00;;;;;;5082295;28;19919;-65
2022/08/16 13:57:41;;;;;;;;;;;29.30;60.00;;;;;;5082306;28;20062;-65
2022/08/16 14:00:08;;;;;;;;;;;29.40;60.10;;;;;;5081859;28;19916;-65
2022/08/16 14:02:34;;;;;;;;;;;29.40;60.00;;;;;;5087858;28;20264;-65
2022/08/16 14:05:00;;;;;;;;;;;29.50;59.40;;;;;;5082123;28;19915;-66
2022/08/16 14:07:25;;;;;;;;;;;29.60;59.40;;;;;;5084004;28;20649;-66
2022/08/16 14:09:51;;;;;;;;;;;29.60;59.10;;;;;;5081528;28;19921;-66
2022/08/16 14:12:19;;;;;;;;;;;29.70;59.30;;;;;;5068331;28;19919;-65
2022/08/16 14:14:45;;;;;;;;;;;29.70;59.40;;;;;;5068384;28;19915;-66
2022/08/16 14:17:10;;;;;;;;;;;29.80;59.20;;;;;;5068429;28;19908;-66
2022/08/16 14:19:36;;;;;;;;;;;29.90;59.40;;;;;;5072676;28;19924;-66
2022/08/16 14:22:02;;;;;;;;;;;29.90;58.60;;;;;;5067778;28;19959;-66
2022/08/16 14:24:28;;;;;;;;;;;30.00;59.00;;;;;;5068369;28;19912;-65